sensor_id;sensor_type;location;lat;lon;timestamp;pressure;altitude;pressure_sealevel;temperature;humidity
60871;BME280;46714;50.118;14.462;2024-02-04T00:01:41;99325.00;;;7.46;100.00
60871;BME280;46714;50.118;14.462;2024-02-04T00:04:06;99323.31;;;7.45;100.00
60871;BME280;46714;50.118;14.462;2024-02-04T00:06:32;99321.63;;;7.44;100.00
60871;BME280;46714;50.118;14.462;2024-02-04T00:08:57;99329.97;;;7.42;100.00
60871;BME280;46714;50.118;14.462;2024-02-04T00:11:23;99329.31;;;7.40;100.00
60871;BME280;46714;50.118;14.462;2024-02-04T00:13:48;99329.97;;;7.42;100.00
60871;BME280;46714;50.118;14.462;2024-02-04T00:16:14;99336.22;;;7.43;100.00
60871;BME280;46714;50.118;14.462;2024-02-04T00:18:39;99330.78;;;7.43;100.00
60871;BME280;46714;50.118;14.462;2024-02-04T00:21:05;99339.94;;;7.42;100.00
60871;BME280;46714;50.118;14.462;2024-02-04T00:23:30;99331.81;;;7.42;100.00
60871;BME280;46714;50.118;14.462;2024-02-04T00:25:55;99336.22;;;7.43;100.00
60871;BME280;46714;50.118;14.462;2024-02-04T00:28:21;99346.22;;;7.42;100.00
60871;BME280;46714;50.118;14.462;2024-02-04T00:30:46;99332.66;;;7.42;100.00
60871;BME280;46714;50.118;14.462;2024-02-04T00:33:14;99333.69;;;7.41;100.00
60871;BME280;46714;50.118;14.462;2024-02-04T00:35:39;99337.22;;;7.42;100.00
60871;BME280;46714;50.118;14.462;2024-02-04T00:38:05;99321.19;;;7.40;100.00
60871;BME280;46714;50.118;14.462;2024-02-04T00:40:30;99319.50;;;7.39;100.00
60871;BME280;46714;50.118;14.462;2024-02-04T00:42:55;99325.75;;;7.40;100.00
60871;BME280;46714;50.118;14.462;2024-02-04T00:45:21;99319.50;;;7.39;100.00
60871;BME280;46714;50.118;14.462;2024-02-04T00:47:46;99312.00;;;7.41;100.00
60871;BME280;46714;50.118;14.462;2024-02-04T00:50:11;99320.97;;;7.42;100.00
60871;BME280;46714;50.118;14.462;2024-02-04T00:52:38;99320.97;;;7.42;100.00
60871;BME280;46714;50.118;14.462;2024-02-04T00:55:03;99318.25;;;7.42;100.00
60871;BME280;46714;50.118;14.462;2024-02-04T00:57:29;99319.97;;;7.43;100.00
60871;BME280;46714;50.118;14.462;2024-02-04T00:59:54;99316.41;;;7.42;100.00
60871;BME280;46714;50.118;14.462;2024-02-04T01:02:19;99315.38;;;7.43;100.00
60871;BME280;46714;50.118;14.462;2024-02-04T01:04:45;99319.13;;;7.42;100.00
60871;BME280;46714;50.118;14.462;2024-02-04T01:07:10;99324.16;;;7.45;100.00
60871;BME280;46714;50.118;14.462;2024-02-04T01:09:35;99319.38;;;7.47;100.00
60871;BME280;46714;50.118;14.462;2024-02-04T01:12:01;99305.84;;;7.47;100.00
60871;BME280;46714;50.118;14.462;2024-02-04T01:14:26;99312.09;;;7.48;100.00
60871;BME280;46714;50.118;14.462;2024-02-04T01:16:52;99311.06;;;7.49;100.00
60871;BME280;46714;50.118;14.462;2024-02-04T01:19:17;99309.22;;;7.49;100.00
60871;BME280;46714;50.118;14.462;2024-02-04T01:21:42;99321.06;;;7.48;100.00
60871;BME280;46714;50.118;14.462;2024-02-04T01:24:09;99313.75;;;7.49;100.00
60871;BME280;46714;50.118;14.462;2024-02-04T01:26:34;99312.09;;;7.48;100.00
60871;BME280;46714;50.118;14.462;2024-02-04T01:29:00;99318.16;;;7.50;100.00
60871;BME280;46714;50.118;14.462;2024-02-04T01:31:26;99305.63;;;7.49;100.00
60871;BME280;46714;50.118;14.462;2024-02-04T01:33:52;99302.09;;;7.48;100.00
60871;BME280;46714;50.118;14.462;2024-02-04T01:36:17;99303.13;;;7.47;100.00
60871;BME280;46714;50.118;14.462;2024-02-04T01:38:43;99302.66;;;7.44;100.00
60871;BME280;46714;50.118;14.462;2024-02-04T01:41:08;99304.94;;;7.40;100.00
60871;BME280;46714;50.118;14.462;2024-02-04T01:43:33;99299.22;;;7.35;100.00
60871;BME280;46714;50.118;14.462;2024-02-04T01:45:59;99297.66;;;7.26;100.00
60871;BME280;46714;50.118;14.462;2024-02-04T01:48:24;99294.03;;;7.19;100.00
60871;BME280;46714;50.118;14.462;2024-02-04T01:50:51;99289.19;;;7.14;100.00
60871;BME280;46714;50.118;14.462;2024-02-04T01:53:19;99288.75;;;7.10;100.00
60871;BME280;46714;50.118;14.462;2024-02-04T01:55:47;99295.38;;;7.08;100.00
60871;BME280;46714;50.118;14.462;2024-02-04T01:58:14;99309.94;;;7.07;100.00
60871;BME280;46714;50.118;14.462;2024-02-04T02:00:40;99302.84;;;7.06;100.00
60871;BME280;46714;50.118;14.462;2024-02-04T02:03:05;99299.50;;;7.04;100.00
60871;BME280;46714;50.118;14.462;2024-02-04T02:05:33;99296.13;;;7.02;100.00
60871;BME280;46714;50.118;14.462;2024-02-04T02:07:59;99295.31;;;7.01;100.00
60871;BME280;46714;50.118;14.462;2024-02-04T02:10:24;99287.34;;;7.00;100.00
60871;BME280;46714;50.118;14.462;2024-02-04T02:12:51;99282.78;;;7.00;100.00
60871;BME280;46714;50.118;14.462;2024-02-04T02:15:20;99279.06;;;7.01;100.00
60871;BME280;46714;50.118;14.462;2024-02-04T02:17:51;99285.31;;;7.02;100.00
60871;BME280;46714;50.118;14.462;2024-02-04T02:20:27;99283.25;;;7.04;100.00
60871;BME280;46714;50.118;14.462;2024-02-04T02:25:36;99276.63;;;7.06;100.00
60871;BME280;46714;50.118;14.462;2024-02-04T02:28:03;99274.94;;;7.05;100.00
60871;BME280;46714;50.118;14.462;2024-02-04T02:30:28;99278.69;;;7.04;100.00
60871;BME280;46714;50.118;14.462;2024-02-04T02:32:54;99281.94;;;7.00;100.00
60871;BME280;46714;50.118;14.462;2024-02-04T02:35:19;99274.22;;;6.97;100.00
60871;BME280;46714;50.118;14.462;2024-02-04T02:40:59;99265.94;;;6.83;100.00
60871;BME280;46714;50.118;14.462;2024-02-04T02:43:29;99274.59;;;6.79;100.00
60871;BME280;46714;50.118;14.462;2024-02-04T02:45:57;99266.00;;;6.75;100.00
60871;BME280;46714;50.118;14.462;2024-02-04T02:48:22;99262.00;;;6.71;100.00
60871;BME280;46714;50.118;14.462;2024-02-04T02:50:49;99261.38;;;6.69;100.00
60871;BME280;46714;50.118;14.462;2024-02-04T02:53:15;99262.75;;;6.65;100.00
60871;BME280;46714;50.118;14.462;2024-02-04T02:55:41;99256.88;;;6.61;100.00
60871;BME280;46714;50.118;14.462;2024-02-04T02:58:06;99271.78;;;6.57;100.00
60871;BME280;46714;50.118;14.462;2024-02-04T03:00:32;99267.25;;;6.58;100.00
60871;BME280;46714;50.118;14.462;2024-02-04T03:02:58;99267.03;;;6.59;100.00
60871;BME280;46714;50.118;14.462;2024-02-04T03:05:23;99264.34;;;6.59;100.00
60871;BME280;46714;50.118;14.462;2024-02-04T03:07:49;99263.97;;;6.62;100.00
60871;BME280;46714;50.118;14.462;2024-02-04T03:10:14;99258.38;;;6.64;100.00
60871;BME280;46714;50.118;14.462;2024-02-04T03:12:39;99266.31;;;6.65;100.00
60871;BME280;46714;50.118;14.462;2024-02-04T03:15:05;99264.63;;;6.64;100.00
60871;BME280;46714;50.118;14.462;2024-02-04T03:17:30;99258.38;;;6.64;100.00
60871;BME280;46714;50.118;14.462;2024-02-04T03:19:56;99260.41;;;6.62;100.00
60871;BME280;46714;50.118;14.462;2024-02-04T03:22:21;99271.44;;;6.60;100.00
60871;BME280;46714;50.118;14.462;2024-02-04T03:24:47;99275.38;;;6.58;100.00
60871;BME280;46714;50.118;14.462;2024-02-04T03:27:13;99273.00;;;6.55;100.00
60871;BME280;46714;50.118;14.462;2024-02-04T03:29:38;99268.81;;;6.52;100.00
60871;BME280;46714;50.118;14.462;2024-02-04T03:32:04;99263.97;;;6.47;100.00
60871;BME280;46714;50.118;14.462;2024-02-04T03:34:30;99271.63;;;6.44;100.00
60871;BME280;46714;50.118;14.462;2024-02-04T03:36:55;99277.38;;;6.41;100.00
60871;BME280;46714;50.118;14.462;2024-02-04T03:39:21;99282.50;;;6.36;100.00
60871;BME280;46714;50.118;14.462;2024-02-04T03:41:46;99291.34;;;6.29;100.00
60871;BME280;46714;50.118;14.462;2024-02-04T03:44:11;99297.13;;;6.26;100.00
60871;BME280;46714;50.118;14.462;2024-02-04T03:46:37;99291.25;;;6.23;100.00
60871;BME280;46714;50.118;14.462;2024-02-04T03:49:05;99289.41;;;6.23;100.00
60871;BME280;46714;50.118;14.462;2024-02-04T03:51:31;99271.59;;;6.29;100.00
60871;BME280;46714;50.118;14.462;2024-02-04T03:53:57;99285.22;;;6.36;100.00
60871;BME280;46714;50.118;14.462;2024-02-04T03:56:22;99282.44;;;6.44;100.00
60871;BME280;46714;50.118;14.462;2024-02-04T03:58:47;99291.66;;;6.49;100.00
60871;BME280;46714;50.118;14.462;2024-02-04T04:01:13;99298.00;;;6.57;100.00
60871;BME280;46714;50.118;14.462;2024-02-04T04:03:42;99289.53;;;6.60;100.00
60871;BME280;46714;50.118;14.462;2024-02-04T04:06:11;99300.63;;;6.65;100.00
60871;BME280;46714;50.118;14.462;2024-02-04T04:08:36;99297.53;;;6.68;100.00
60871;BME280;46714;50.118;14.462;2024-02-04T04:11:02;99303.59;;;6.70;100.00
60871;BME280;46714;50.118;14.462;2024-02-04T04:13:28;99289.91;;;6.71;100.00
60871;BME280;46714;50.118;14.462;2024-02-04T04:15:54;99288.69;;;6.74;100.00
60871;BME280;46714;50.118;14.462;2024-02-04T04:18:20;99277.50;;;6.77;100.00
60871;BME280;46714;50.118;14.462;2024-02-04T04:20:46;99274.41;;;6.80;100.00
60871;BME280;46714;50.118;14.462;2024-02-04T04:23:14;99266.94;;;6.82;100.00
60871;BME280;46714;50.118;14.462;2024-02-04T04:25:39;99254.72;;;6.86;100.00
60871;BME280;46714;50.118;14.462;2024-02-04T04:28:05;99249.56;;;6.91;100.00
60871;BME280;46714;50.118;14.462;2024-02-04T04:30:30;99246.50;;;6.95;100.00
60871;BME280;46714;50.118;14.462;2024-02-04T04:32:56;99250.69;;;6.97;100.00
60871;BME280;46714;50.118;14.462;2024-02-04T04:35:23;99244.06;;;7.00;100.00
60871;BME280;46714;50.118;14.462;2024-02-04T04:37:48;99252.00;;;7.01;100.00
60871;BME280;46714;50.118;14.462;2024-02-04T04:40:13;99242.41;;;6.99;100.00
60871;BME280;46714;50.118;14.462;2024-02-04T04:42:39;99236.50;;;6.95;100.00
60871;BME280;46714;50.118;14.462;2024-02-04T04:45:05;99236.34;;;6.97;100.00
60871;BME280;46714;50.118;14.462;2024-02-04T04:47:32;99242.75;;;6.96;100.00
60871;BME280;46714;50.118;14.462;2024-02-04T04:49:58;99236.91;;;6.92;100.00
60871;BME280;46714;50.118;14.462;2024-02-04T04:52:23;99242.00;;;6.87;100.00
60871;BME280;46714;50.118;14.462;2024-02-04T04:54:48;99240.53;;;6.84;100.00
60871;BME280;46714;50.118;14.462;2024-02-04T04:57:14;99232.81;;;6.81;100.00
60871;BME280;46714;50.118;14.462;2024-02-04T04:59:40;99228.78;;;6.77;100.00
60871;BME280;46714;50.118;14.462;2024-02-04T05:02:05;99226.25;;;6.76;100.00
60871;BME280;46714;50.118;14.462;2024-02-04T05:04:30;99229.19;;;6.74;100.00
60871;BME280;46714;50.118;14.462;2024-02-04T05:06:56;99213.13;;;6.72;100.00
60871;BME280;46714;50.118;14.462;2024-02-04T05:09:21;99228.34;;;6.74;100.00
60871;BME280;46714;50.118;14.462;2024-02-04T05:11:47;99224.13;;;6.71;100.00
60871;BME280;46714;50.118;14.462;2024-02-04T05:14:12;99229.47;;;6.64;100.00
60871;BME280;46714;50.118;14.462;2024-02-04T05:16:37;99223.75;;;6.59;100.00
60871;BME280;46714;50.118;14.462;2024-02-04T05:19:03;99229.94;;;6.53;100.00
60871;BME280;46714;50.118;14.462;2024-02-04T05:21:28;99235.06;;;6.48;100.00
60871;BME280;46714;50.118;14.462;2024-02-04T05:23:54;99235.16;;;6.40;100.00
60871;BME280;46714;50.118;14.462;2024-02-04T05:26:19;99234.50;;;6.38;100.00
60871;BME280;46714;50.118;14.462;2024-02-04T05:28:45;99237.88;;;6.40;100.00
60871;BME280;46714;50.118;14.462;2024-02-04T05:31:10;99237.97;;;6.46;100.00
60871;BME280;46714;50.118;14.462;2024-02-04T05:33:36;99234.88;;;6.49;100.00
60871;BME280;46714;50.118;14.462;2024-02-04T05:36:01;99219.78;;;6.55;100.00
60871;BME280;46714;50.118;14.462;2024-02-04T05:38:26;99222.53;;;6.62;100.00
60871;BME280;46714;50.118;14.462;2024-02-04T05:40:52;99217.88;;;6.70;100.00
60871;BME280;46714;50.118;14.462;2024-02-04T05:43:17;99213.38;;;6.78;100.00
60871;BME280;46714;50.118;14.462;2024-02-04T05:45:43;99218.22;;;6.82;100.00
60871;BME280;46714;50.118;14.462;2024-02-04T05:48:08;99224.78;;;6.88;100.00
60871;BME280;46714;50.118;14.462;2024-02-04T05:50:34;99224.66;;;6.96;100.00
60871;BME280;46714;50.118;14.462;2024-02-04T05:53:00;99223.88;;;7.02;100.00
60871;BME280;46714;50.118;14.462;2024-02-04T05:55:25;99214.38;;;7.06;100.00
60871;BME280;46714;50.118;14.462;2024-02-04T05:57:50;99219.38;;;7.09;100.00
60871;BME280;46714;50.118;14.462;2024-02-04T06:00:16;99201.94;;;7.12;100.00
60871;BME280;46714;50.118;14.462;2024-02-04T06:02:42;99202.22;;;7.17;100.00
60871;BME280;46714;50.118;14.462;2024-02-04T06:05:08;99211.41;;;7.23;100.00
60871;BME280;46714;50.118;14.462;2024-02-04T06:07:34;99198.53;;;7.25;100.00
60871;BME280;46714;50.118;14.462;2024-02-04T06:09:59;99200.00;;;7.27;100.00
60871;BME280;46714;50.118;14.462;2024-02-04T06:12:26;99189.00;;;7.29;100.00
60871;BME280;46714;50.118;14.462;2024-02-04T06:14:51;99195.91;;;7.31;100.00
60871;BME280;46714;50.118;14.462;2024-02-04T06:17:17;99197.97;;;7.29;100.00
60871;BME280;46714;50.118;14.462;2024-02-04T06:19:42;99185.06;;;7.31;100.00
60871;BME280;46714;50.118;14.462;2024-02-04T06:22:07;99196.53;;;7.33;100.00
60871;BME280;46714;50.118;14.462;2024-02-04T06:24:33;99198.22;;;7.34;100.00
60871;BME280;46714;50.118;14.462;2024-02-04T06:26:58;99198.03;;;7.36;100.00
60871;BME280;46714;50.118;14.462;2024-02-04T06:29:23;99192.59;;;7.36;100.00
60871;BME280;46714;50.118;14.462;2024-02-04T06:31:49;99191.56;;;7.37;100.00
60871;BME280;46714;50.118;14.462;2024-02-04T06:34:14;99185.78;;;7.40;100.00
60871;BME280;46714;50.118;14.462;2024-02-04T06:36:43;99188.28;;;7.42;100.00
60871;BME280;46714;50.118;14.462;2024-02-04T06:39:12;99190.97;;;7.42;100.00
60871;BME280;46714;50.118;14.462;2024-02-04T06:41:37;99186.59;;;7.41;100.00
60871;BME280;46714;50.118;14.462;2024-02-04T06:44:03;99191.78;;;7.36;100.00
60871;BME280;46714;50.118;14.462;2024-02-04T06:46:29;99196.72;;;7.32;100.00
60871;BME280;46714;50.118;14.462;2024-02-04T06:48:54;99199.00;;;7.28;100.00
60871;BME280;46714;50.118;14.462;2024-02-04T06:51:20;99201.06;;;7.26;100.00
60871;BME280;46714;50.118;14.462;2024-02-04T06:53:46;99196.41;;;7.20;100.00
60871;BME280;46714;50.118;14.462;2024-02-04T06:56:12;99188.69;;;7.17;100.00
60871;BME280;46714;50.118;14.462;2024-02-04T06:58:37;99189.88;;;7.14;100.00
60871;BME280;46714;50.118;14.462;2024-02-04T07:01:03;99183.63;;;7.14;100.00
60871;BME280;46714;50.118;14.462;2024-02-04T07:03:29;99178.69;;;7.18;100.00
60871;BME280;46714;50.118;14.462;2024-02-04T07:05:55;99183.69;;;7.21;100.00
60871;BME280;46714;50.118;14.462;2024-02-04T07:08:20;99179.59;;;7.25;100.00
60871;BME280;46714;50.118;14.462;2024-02-04T07:10:46;99175.25;;;7.30;100.00
60871;BME280;46714;50.118;14.462;2024-02-04T07:13:11;99180.72;;;7.37;100.00
60871;BME280;46714;50.118;14.462;2024-02-04T07:15:37;99179.97;;;7.43;100.00
60871;BME280;46714;50.118;14.462;2024-02-04T07:18:03;99193.75;;;7.48;100.00
60871;BME280;46714;50.118;14.462;2024-02-04T07:20:29;99189.44;;;7.54;100.00
60871;BME280;46714;50.118;14.462;2024-02-04T07:22:54;99176.34;;;7.58;100.00
60871;BME280;46714;50.118;14.462;2024-02-04T07:25:20;99183.88;;;7.62;100.00
60871;BME280;46714;50.118;14.462;2024-02-04T07:27:45;99172.25;;;7.68;100.00
60871;BME280;46714;50.118;14.462;2024-02-04T07:30:11;99179.81;;;7.73;100.00
60871;BME280;46714;50.118;14.462;2024-02-04T07:32:36;99186.53;;;7.77;100.00
60871;BME280;46714;50.118;14.462;2024-02-04T07:35:02;99185.72;;;7.83;100.00
60871;BME280;46714;50.118;14.462;2024-02-04T07:37:28;99187.00;;;7.87;100.00
60871;BME280;46714;50.118;14.462;2024-02-04T07:39:53;99189.75;;;7.94;100.00
60871;BME280;46714;50.118;14.462;2024-02-04T07:42:19;99197.31;;;7.98;100.00
60871;BME280;46714;50.118;14.462;2024-02-04T07:44:44;99196.53;;;8.05;100.00
60871;BME280;46714;50.118;14.462;2024-02-04T07:47:09;99193.16;;;8.03;100.00
60871;BME280;46714;50.118;14.462;2024-02-04T07:49:35;99199.19;;;7.98;100.00
60871;BME280;46714;50.118;14.462;2024-02-04T07:52:00;99186.47;;;7.98;100.00
60871;BME280;46714;50.118;14.462;2024-02-04T07:54:26;99178.78;;;8.02;100.00
60871;BME280;46714;50.118;14.462;2024-02-04T07:56:51;99179.03;;;8.07;100.00
60871;BME280;46714;50.118;14.462;2024-02-04T07:59:16;99171.72;;;8.08;100.00
60871;BME280;46714;50.118;14.462;2024-02-04T08:01:42;99167.56;;;8.12;100.00
60871;BME280;46714;50.118;14.462;2024-02-04T08:04:07;99161.56;;;8.16;100.00
60871;BME280;46714;50.118;14.462;2024-02-04T08:06:35;99167.22;;;8.22;100.00
60871;BME280;46714;50.118;14.462;2024-02-04T08:09:02;99166.63;;;8.26;100.00
60871;BME280;46714;50.118;14.462;2024-02-04T08:11:28;99170.81;;;8.29;100.00
60871;BME280;46714;50.118;14.462;2024-02-04T08:13:53;99167.72;;;8.32;100.00
60871;BME280;46714;50.118;14.462;2024-02-04T08:16:19;99170.00;;;8.35;100.00
60871;BME280;46714;50.118;14.462;2024-02-04T08:18:45;99180.66;;;8.36;100.00
60871;BME280;46714;50.118;14.462;2024-02-04T08:21:11;99170.47;;;8.38;100.00
60871;BME280;46714;50.118;14.462;2024-02-04T08:23:36;99179.22;;;8.41;100.00
60871;BME280;46714;50.118;14.462;2024-02-04T08:26:02;99179.88;;;8.43;100.00
60871;BME280;46714;50.118;14.462;2024-02-04T08:28:27;99176.97;;;8.44;100.00
60871;BME280;46714;50.118;14.462;2024-02-04T08:30:53;99168.66;;;8.46;100.00
60871;BME280;46714;50.118;14.462;2024-02-04T08:33:18;99171.13;;;8.47;100.00
60871;BME280;46714;50.118;14.462;2024-02-04T08:35:44;99173.00;;;8.47;100.00
60871;BME280;46714;50.118;14.462;2024-02-04T08:38:09;99165.53;;;8.49;100.00
60871;BME280;46714;50.118;14.462;2024-02-04T08:40:34;99172.63;;;8.50;100.00
60871;BME280;46714;50.118;14.462;2024-02-04T08:43:00;99171.78;;;8.49;100.00
60871;BME280;46714;50.118;14.462;2024-02-04T08:45:25;99169.06;;;8.49;100.00
60871;BME280;46714;50.118;14.462;2024-02-04T08:47:52;99171.59;;;8.51;100.00
60871;BME280;46714;50.118;14.462;2024-02-04T08:50:17;99165.31;;;8.50;100.00
60871;BME280;46714;50.118;14.462;2024-02-04T08:52:43;99164.09;;;8.53;100.00
60871;BME280;46714;50.118;14.462;2024-02-04T08:55:08;99162.00;;;8.55;100.00
60871;BME280;46714;50.118;14.462;2024-02-04T08:57:34;99154.50;;;8.57;100.00
60871;BME280;46714;50.118;14.462;2024-02-04T08:59:59;99163.06;;;8.60;100.00
60871;BME280;46714;50.118;14.462;2024-02-04T09:02:25;99178.75;;;8.65;100.00
60871;BME280;46714;50.118;14.462;2024-02-04T09:04:50;99174.59;;;8.69;100.00
60871;BME280;46714;50.118;14.462;2024-02-04T09:07:15;99173.97;;;8.74;100.00
60871;BME280;46714;50.118;14.462;2024-02-04T09:09:41;99168.13;;;8.77;100.00
60871;BME280;46714;50.118;14.462;2024-02-04T09:12:07;99157.72;;;8.80;100.00
60871;BME280;46714;50.118;14.462;2024-02-04T09:14:35;99160.03;;;8.84;100.00
60871;BME280;46714;50.118;14.462;2024-02-04T09:17:03;99172.97;;;8.88;100.00
60871;BME280;46714;50.118;14.462;2024-02-04T09:19:30;99164.66;;;8.90;100.00
60871;BME280;46714;50.118;14.462;2024-02-04T09:21:56;99172.59;;;8.91;99.87
60871;BME280;46714;50.118;14.462;2024-02-04T09:24:21;99178.84;;;8.92;99.58
60871;BME280;46714;50.118;14.462;2024-02-04T09:26:47;99174.06;;;8.94;100.00
60871;BME280;46714;50.118;14.462;2024-02-04T09:29:12;99176.53;;;8.95;99.37
60871;BME280;46714;50.118;14.462;2024-02-04T09:31:38;99162.78;;;8.97;100.00
60871;BME280;46714;50.118;14.462;2024-02-04T09:34:03;99160.06;;;8.97;99.70
60871;BME280;46714;50.118;14.462;2024-02-04T09:36:29;99178.44;;;8.95;99.46
60871;BME280;46714;50.118;14.462;2024-02-04T09:38:54;99179.50;;;8.94;99.19
60871;BME280;46714;50.118;14.462;2024-02-04T09:41:20;99185.09;;;8.92;99.42
60871;BME280;46714;50.118;14.462;2024-02-04T09:43:47;99176.78;;;8.94;98.60
60871;BME280;46714;50.118;14.462;2024-02-04T09:46:15;99170.09;;;8.96;99.61
60871;BME280;46714;50.118;14.462;2024-02-04T09:48:41;99179.06;;;8.97;99.60
60871;BME280;46714;50.118;14.462;2024-02-04T09:51:09;99191.00;;;9.02;99.05
60871;BME280;46714;50.118;14.462;2024-02-04T09:53:35;99179.53;;;9.07;99.58
60871;BME280;46714;50.118;14.462;2024-02-04T09:56:04;99168.88;;;9.12;99.51
60871;BME280;46714;50.118;14.462;2024-02-04T09:58:31;99166.38;;;9.17;99.05
60871;BME280;46714;50.118;14.462;2024-02-04T10:00:58;99155.72;;;9.22;98.03
60871;BME280;46714;50.118;14.462;2024-02-04T10:03:25;99159.72;;;9.27;98.11
60871;BME280;46714;50.118;14.462;2024-02-04T10:05:51;99152.00;;;9.30;98.65
60871;BME280;46714;50.118;14.462;2024-02-04T10:08:16;99157.22;;;9.32;97.94
60871;BME280;46714;50.118;14.462;2024-02-04T10:10:41;99149.69;;;9.34;97.85
60871;BME280;46714;50.118;14.462;2024-02-04T10:13:10;99152.22;;;9.35;97.34
60871;BME280;46714;50.118;14.462;2024-02-04T10:15:36;99154.50;;;9.38;97.02
60871;BME280;46714;50.118;14.462;2024-02-04T10:18:07;99146.34;;;9.38;96.17
60871;BME280;46714;50.118;14.462;2024-02-04T10:20:34;99144.28;;;9.40;96.70
60871;BME280;46714;50.118;14.462;2024-02-04T10:22:59;99149.28;;;9.43;97.41
60871;BME280;46714;50.118;14.462;2024-02-04T10:25:25;99153.69;;;9.44;96.90
60871;BME280;46714;50.118;14.462;2024-02-04T10:27:51;99154.50;;;9.45;96.32
60871;BME280;46714;50.118;14.462;2024-02-04T10:30:24;99156.59;;;9.43;96.41
60871;BME280;46714;50.118;14.462;2024-02-04T10:32:52;99141.75;;;9.39;95.95
60871;BME280;46714;50.118;14.462;2024-02-04T10:35:22;99141.56;;;9.40;96.70
60871;BME280;46714;50.118;14.462;2024-02-04T10:37:51;99136.94;;;9.41;96.68
60871;BME280;46714;50.118;14.462;2024-02-04T10:40:18;99126.09;;;9.41;96.31
60871;BME280;46714;50.118;14.462;2024-02-04T10:42:43;99127.78;;;9.42;95.99
60871;BME280;46714;50.118;14.462;2024-02-04T10:45:10;99122.34;;;9.42;95.60
60871;BME280;46714;50.118;14.462;2024-02-04T10:47:39;99120.88;;;9.46;95.91
60871;BME280;46714;50.118;14.462;2024-02-04T10:50:05;99123.59;;;9.46;96.05
60871;BME280;46714;50.118;14.462;2024-02-04T10:52:37;99124.44;;;9.47;95.61
60871;BME280;46714;50.118;14.462;2024-02-04T10:55:07;99117.31;;;9.46;95.42
60871;BME280;46714;50.118;14.462;2024-02-04T10:57:37;99107.50;;;9.44;95.84
60871;BME280;46714;50.118;14.462;2024-02-04T11:00:04;99102.06;;;9.44;95.89
60871;BME280;46714;50.118;14.462;2024-02-04T11:02:36;99106.88;;;9.42;96.20
60871;BME280;46714;50.118;14.462;2024-02-04T11:05:03;99108.75;;;9.42;96.59
60871;BME280;46714;50.118;14.462;2024-02-04T11:07:33;99111.66;;;9.40;96.01
60871;BME280;46714;50.118;14.462;2024-02-04T11:10:00;99116.06;;;9.35;96.97
60871;BME280;46714;50.118;14.462;2024-02-04T11:12:26;99107.91;;;9.35;96.58
60871;BME280;46714;50.118;14.462;2024-02-04T11:14:55;99098.31;;;9.32;96.73
60871;BME280;46714;50.118;14.462;2024-02-04T11:25:56;99085.56;;;9.26;97.15
60871;BME280;46714;50.118;14.462;2024-02-04T11:28:23;99082.00;;;9.26;97.41
60871;BME280;46714;50.118;14.462;2024-02-04T11:30:50;99079.28;;;9.26;97.31
60871;BME280;46714;50.118;14.462;2024-02-04T11:33:20;99076.16;;;9.29;97.52
60871;BME280;46714;50.118;14.462;2024-02-04T11:35:57;99067.16;;;9.35;96.88
60871;BME280;46714;50.118;14.462;2024-02-04T11:38:30;99055.44;;;9.41;97.33
60871;BME280;46714;50.118;14.462;2024-02-04T11:40:56;99057.34;;;9.47;96.39
60871;BME280;46714;50.118;14.462;2024-02-04T11:43:22;99051.91;;;9.54;95.79
60871;BME280;46714;50.118;14.462;2024-02-04T11:45:51;99061.31;;;9.58;95.14
60871;BME280;46714;50.118;14.462;2024-02-04T11:48:18;99057.09;;;9.62;94.43
60871;BME280;46714;50.118;14.462;2024-02-04T11:50:51;99059.81;;;9.62;94.74
60871;BME280;46714;50.118;14.462;2024-02-04T11:53:18;99055.22;;;9.62;94.81
60871;BME280;46714;50.118;14.462;2024-02-04T11:55:43;99052.28;;;9.64;94.43
60871;BME280;46714;50.118;14.462;2024-02-04T11:58:10;99050.19;;;9.66;94.18
60871;BME280;46714;50.118;14.462;2024-02-04T12:00:36;99047.47;;;9.66;93.44
60871;BME280;46714;50.118;14.462;2024-02-04T12:03:03;99056.47;;;9.67;93.97
60871;BME280;46714;50.118;14.462;2024-02-04T12:05:36;99046.44;;;9.67;92.13
60871;BME280;46714;50.118;14.462;2024-02-04T12:08:04;99041.22;;;9.65;92.85
60871;BME280;46714;50.118;14.462;2024-02-04T12:10:31;99044.56;;;9.61;92.00
60871;BME280;46714;50.118;14.462;2024-02-04T12:13:07;99040.19;;;9.60;92.07
60871;BME280;46714;50.118;14.462;2024-02-04T12:15:35;99034.94;;;9.58;92.00
60871;BME280;46714;50.118;14.462;2024-02-04T12:20:32;99007.56;;;9.60;92.15
60871;BME280;46714;50.118;14.462;2024-02-04T12:22:58;99020.94;;;9.61;91.86
60871;BME280;46714;50.118;14.462;2024-02-04T12:25:24;99009.22;;;9.61;92.32
60871;BME280;46714;50.118;14.462;2024-02-04T12:27:52;99016.13;;;9.63;91.94
60871;BME280;46714;50.118;14.462;2024-02-04T12:30:18;99005.88;;;9.65;91.54
60871;BME280;46714;50.118;14.462;2024-02-04T12:32:43;98993.94;;;9.67;92.04
60871;BME280;46714;50.118;14.462;2024-02-04T12:35:13;98986.22;;;9.70;91.67
60871;BME280;46714;50.118;14.462;2024-02-04T12:37:49;98995.00;;;9.72;91.08
60871;BME280;46714;50.118;14.462;2024-02-04T12:40:23;98995.81;;;9.73;91.31
60871;BME280;46714;50.118;14.462;2024-02-04T12:42:56;98996.06;;;9.71;91.26
60871;BME280;46714;50.118;14.462;2024-02-04T12:45:23;98992.72;;;9.69;90.75
60871;BME280;46714;50.118;14.462;2024-02-04T12:47:50;98997.28;;;9.69;91.15
60871;BME280;46714;50.118;14.462;2024-02-04T12:50:16;98988.31;;;9.68;91.80
60871;BME280;46714;50.118;14.462;2024-02-04T12:52:43;98985.78;;;9.67;91.47
60871;BME280;46714;50.118;14.462;2024-02-04T12:55:19;98991.47;;;9.65;91.59
60871;BME280;46714;50.118;14.462;2024-02-04T12:57:48;98981.63;;;9.64;91.66
60871;BME280;46714;50.118;14.462;2024-02-04T13:00:14;98965.56;;;9.62;90.64
60871;BME280;46714;50.118;14.462;2024-02-04T13:02:43;98969.91;;;9.63;90.69
60871;BME280;46714;50.118;14.462;2024-02-04T13:05:08;98964.06;;;9.67;91.43